Time;durP1;ratioP1;P1;durP2;ratioP2;P2;SDS_P1;SDS_P2;PMS_P1;PMS_P2;Temp;Humidity;BMP_temperature;BMP_pressure;BME280_temperature;BME280_humidity;BME280_pressure;Samples;Min_cycle;Max_cycle;Signal;HPM_P1;HPM_P2
2023/08/29 00:01:47;;;;;;;2.80;2.60;;;22.00;89.00;;;;;;5022933;28;20451;-70
2023/08/29 00:04:14;;;;;;;4.30;2.70;;;22.00;89.00;;;;;;5022845;28;20838;-70
2023/08/29 00:06:42;;;;;;;3.87;2.83;;;22.00;89.00;;;;;;5022710;28;20473;-69
2023/08/29 00:09:15;;;;;;;2.80;2.60;;;22.00;89.00;;;;;;5005592;28;20443;-70
2023/08/29 00:11:43;;;;;;;2.93;2.67;;;22.00;89.00;;;;;;5022361;28;20458;-70
2023/08/29 00:14:09;;;;;;;2.63;2.43;;;22.00;89.00;;;;;;5005131;28;21124;-70
2023/08/29 00:16:37;;;;;;;3.40;3.10;;;22.00;89.00;;;;;;4989018;28;20541;-69
2023/08/29 00:19:04;;;;;;;3.20;2.90;;;22.00;89.00;;;;;;5003865;28;20523;-69
2023/08/29 00:21:30;;;;;;;3.20;2.90;;;22.00;89.00;;;;;;4969807;28;20456;-70
2023/08/29 00:23:56;;;;;;;3.27;2.80;;;22.00;89.00;;;;;;4990676;28;21186;-70
2023/08/29 00:26:24;;;;;;;3.33;3.03;;;22.00;89.10;;;;;;5005229;28;20639;-69
2023/08/29 00:28:56;;;;;;;2.63;2.43;;;21.90;88.90;;;;;;4989432;28;20523;-70
2023/08/29 00:31:27;;;;;;;3.30;3.00;;;21.90;88.90;;;;;;4991805;28;20455;-70
2023/08/29 00:33:54;;;;;;;3.20;2.70;;;21.90;88.90;;;;;;5005559;28;21030;-69
2023/08/29 00:36:20;;;;;;;4.13;2.80;;;21.90;88.80;;;;;;5005573;28;20450;-70
2023/08/29 00:38:49;;;;;;;3.97;3.10;;;21.90;88.80;;;;;;4973904;28;20427;-70
2023/08/29 00:41:15;;;;;;;2.80;2.60;;;21.90;88.80;;;;;;4988847;28;20470;-69
2023/08/29 00:43:41;;;;;;;3.03;2.83;;;21.90;88.80;;;;;;5005962;28;20427;-70
2023/08/29 00:46:09;;;;;;;3.93;3.00;;;21.90;88.80;;;;;;4992988;28;20479;-70
2023/08/29 00:48:35;;;;;;;3.13;2.90;;;21.90;88.80;;;;;;4992649;28;20450;-70
2023/08/29 00:51:06;;;;;;;4.00;2.60;;;21.90;88.80;;;;;;4982082;28;20455;-70
2023/08/29 00:53:36;;;;;;;2.90;2.70;;;21.90;88.80;;;;;;4989611;28;20460;-70
2023/08/29 00:56:06;;;;;;;2.70;2.50;;;21.90;88.80;;;;;;5017374;28;20542;-69
2023/08/29 00:58:35;;;;;;;3.77;3.23;;;21.80;88.70;;;;;;5008692;28;20423;-70
2023/08/29 01:01:01;;;;;;;3.20;3.00;;;21.80;88.70;;;;;;5008584;28;20439;-70
2023/08/29 01:03:30;;;;;;;2.93;2.60;;;21.80;88.60;;;;;;5008086;28;20418;-70
2023/08/29 01:05:58;;;;;;;4.43;2.97;;;21.80;88.60;;;;;;4992165;28;21285;-70
2023/08/29 01:08:24;;;;;;;4.20;2.77;;;21.80;88.60;;;;;;5008477;28;20427;-69
2023/08/29 01:11:00;;;;;;;3.57;3.27;;;21.80;88.60;;;;;;4991934;28;20853;-70
2023/08/29 01:13:58;;;;;;;3.47;3.00;;;21.80;88.70;;;;;;5007922;28;20435;-70
2023/08/29 01:16:36;;;;;;;3.10;2.80;;;21.80;88.60;;;;;;4943446;28;20451;-70
2023/08/29 01:19:14;;;;;;;3.10;2.70;;;21.80;88.60;;;;;;4992476;28;20454;-70
2023/08/29 01:21:47;;;;;;;3.77;2.70;;;21.80;88.50;;;;;;5008258;28;20437;-70
2023/08/29 01:24:32;;;;;;;3.13;2.93;;;21.70;88.40;;;;;;4991642;28;20438;-70
2023/08/29 01:27:00;;;;;;;3.80;2.90;;;21.70;88.40;;;;;;4972841;28;20481;-70
2023/08/29 01:29:29;;;;;;;3.17;2.87;;;21.70;88.50;;;;;;4989290;28;20440;-69
2023/08/29 01:31:59;;;;;;;2.93;2.60;;;21.70;88.40;;;;;;4992063;28;21055;-69
2023/08/29 01:34:26;;;;;;;2.90;2.70;;;21.70;88.40;;;;;;4991135;28;20522;-69
2023/08/29 01:36:52;;;;;;;3.00;2.70;;;21.70;88.40;;;;;;5006354;28;20501;-70
2023/08/29 01:39:18;;;;;;;3.13;2.83;;;21.70;88.40;;;;;;4991774;28;20450;-70
2023/08/29 01:41:47;;;;;;;4.13;3.10;;;21.70;88.40;;;;;;5007619;28;20782;-70
2023/08/29 01:44:15;;;;;;;3.33;2.67;;;21.70;88.40;;;;;;5007816;28;20426;-70
2023/08/29 01:46:46;;;;;;;3.33;2.87;;;21.70;88.30;;;;;;4991806;28;20443;-70
2023/08/29 01:49:14;;;;;;;2.87;2.67;;;21.60;88.30;;;;;;4991466;28;20441;-69
2023/08/29 01:51:42;;;;;;;3.27;2.97;;;21.60;88.20;;;;;;4989308;28;20510;-70
2023/08/29 01:54:10;;;;;;;4.70;2.97;;;21.60;88.20;;;;;;5005690;28;20429;-69
2023/08/29 01:56:39;;;;;;;4.00;2.80;;;21.60;88.30;;;;;;4969213;28;20450;-70
2023/08/29 01:59:06;;;;;;;3.47;3.00;;;21.60;88.20;;;;;;4991383;28;20365;-69
2023/08/29 02:01:35;;;;;;;3.03;2.83;;;21.60;88.20;;;;;;4990018;28;21277;-70
2023/08/29 02:04:04;;;;;;;3.40;3.10;;;21.60;88.30;;;;;;4972045;28;20458;-70
2023/08/29 02:06:30;;;;;;;3.03;2.83;;;21.60;88.40;;;;;;5023488;28;20459;-70
2023/08/29 02:08:56;;;;;;;2.93;2.73;;;21.50;88.10;;;;;;4990716;28;21066;-70
2023/08/29 02:11:22;;;;;;;3.50;3.20;;;21.60;88.20;;;;;;5006932;28;20576;-70
2023/08/29 02:13:53;;;;;;;2.87;2.60;;;21.50;88.00;;;;;;4971542;28;20783;-70
2023/08/29 02:16:21;;;;;;;2.97;2.73;;;21.50;88.00;;;;;;4971494;28;20440;-69
2023/08/29 02:18:50;;;;;;;3.10;2.90;;;21.50;88.00;;;;;;4987478;28;20444;-69
2023/08/29 02:21:18;;;;;;;3.10;2.80;;;21.50;88.00;;;;;;5005430;28;20979;-70
2023/08/29 02:23:44;;;;;;;3.60;3.33;;;21.50;88.00;;;;;;5023961;28;20427;-70
2023/08/29 02:26:12;;;;;;;3.10;2.90;;;21.50;88.00;;;;;;5006803;28;20462;-70
2023/08/29 02:28:38;;;;;;;3.47;3.17;;;21.50;88.10;;;;;;5007472;28;20434;-70
2023/08/29 02:31:09;;;;;;;3.47;3.17;;;21.50;88.00;;;;;;4991112;28;20462;-70
2023/08/29 02:33:38;;;;;;;4.80;3.40;;;21.40;88.00;;;;;;4988201;28;20447;-69
2023/08/29 02:36:05;;;;;;;3.10;2.90;;;21.50;88.10;;;;;;5024238;28;20500;-70
2023/08/29 02:38:32;;;;;;;2.90;2.70;;;21.40;88.00;;;;;;4990472;28;20513;-70
2023/08/29 02:41:01;;;;;;;3.23;3.03;;;21.40;88.00;;;;;;4990039;28;20488;-70
2023/08/29 02:43:29;;;;;;;2.80;2.60;;;21.40;88.00;;;;;;4989702;28;21017;-69
2023/08/29 02:45:58;;;;;;;6.20;2.87;;;21.40;87.90;;;;;;4989088;28;20481;-70
2023/08/29 02:48:24;;;;;;;3.00;2.80;;;21.40;88.00;;;;;;4970772;28;20963;-70
2023/08/29 02:50:53;;;;;;;2.90;2.70;;;21.40;88.00;;;;;;5004254;28;20446;-69
2023/08/29 02:53:23;;;;;;;3.10;2.87;;;21.40;88.00;;;;;;4956316;28;21070;-70
2023/08/29 02:55:52;;;;;;;4.40;2.70;;;21.40;88.00;;;;;;4990211;28;20438;-69
2023/08/29 02:58:21;;;;;;;3.10;2.90;;;21.40;88.00;;;;;;4974292;28;20450;-69
2023/08/29 03:00:59;;;;;;;3.27;3.07;;;21.30;87.90;;;;;;5005874;28;20430;-70
2023/08/29 03:03:28;;;;;;;4.47;3.00;;;21.40;88.00;;;;;;5006044;28;20499;-70
2023/08/29 03:05:57;;;;;;;3.50;3.20;;;21.30;88.00;;;;;;4989285;28;20454;-69
2023/08/29 03:08:26;;;;;;;3.23;3.00;;;21.30;88.00;;;;;;4989997;28;20493;-70
2023/08/29 03:10:55;;;;;;;3.30;3.10;;;21.30;88.00;;;;;;5006252;28;20446;-69
2023/08/29 03:13:23;;;;;;;3.70;3.50;;;21.30;88.00;;;;;;4975538;28;20476;-70
2023/08/29 03:15:51;;;;;;;3.37;3.17;;;21.30;88.00;;;;;;4986929;28;20439;-70
2023/08/29 03:18:22;;;;;;;3.27;3.07;;;21.30;88.00;;;;;;4986580;28;20407;-70
2023/08/29 03:20:48;;;;;;;3.10;2.90;;;21.30;88.00;;;;;;4986412;28;20440;-69
2023/08/29 03:23:17;;;;;;;3.27;2.90;;;21.20;87.90;;;;;;4970675;28;20455;-69
2023/08/29 03:25:43;;;;;;;4.90;2.77;;;21.20;87.80;;;;;;4993660;28;20515;-70
2023/08/29 03:28:12;;;;;;;3.30;3.00;;;21.20;87.90;;;;;;5005603;28;20455;-69
2023/08/29 03:30:40;;;;;;;3.37;3.07;;;21.20;87.90;;;;;;5005207;28;20410;-70
2023/08/29 03:33:06;;;;;;;3.10;2.73;;;21.20;87.80;;;;;;5004689;28;20450;-69
2023/08/29 03:35:32;;;;;;;3.20;3.00;;;21.20;87.90;;;;;;4988982;28;20829;-69
2023/08/29 03:38:02;;;;;;;3.27;2.97;;;21.20;87.90;;;;;;4989408;28;20181;-70
2023/08/29 03:40:30;;;;;;;3.20;3.00;;;21.20;87.90;;;;;;5005273;28;20463;-70
2023/08/29 03:42:58;;;;;;;3.40;3.20;;;21.20;87.90;;;;;;4974967;28;20524;-70
2023/08/29 03:45:24;;;;;;;3.20;2.90;;;21.20;87.90;;;;;;4985700;28;20470;-70
2023/08/29 03:47:51;;;;;;;3.30;3.00;;;21.20;87.90;;;;;;4985737;28;20439;-69
2023/08/29 03:50:21;;;;;;;3.30;3.10;;;21.20;87.90;;;;;;4969924;28;20860;-70
2023/08/29 03:52:49;;;;;;;3.03;2.83;;;21.20;88.00;;;;;;4969499;28;20495;-70
2023/08/29 03:55:18;;;;;;;3.10;2.90;;;21.20;88.00;;;;;;4972963;28;20561;-70
2023/08/29 03:57:49;;;;;;;3.10;2.90;;;21.10;88.00;;;;;;4989002;28;20436;-69
2023/08/29 04:00:17;;;;;;;3.30;3.00;;;21.20;88.00;;;;;;4989465;28;21326;-69
2023/08/29 04:02:48;;;;;;;3.20;3.00;;;21.10;88.00;;;;;;4989230;28;20461;-69
2023/08/29 04:05:17;;;;;;;3.27;3.07;;;21.10;88.00;;;;;;5004932;28;20446;-70
2023/08/29 04:07:47;;;;;;;2.90;2.70;;;21.10;88.00;;;;;;4988949;28;20431;-70
2023/08/29 04:10:14;;;;;;;6.73;3.40;;;21.10;88.80;;;;;;4988510;28;20469;-69
2023/08/29 04:12:45;;;;;;;3.23;3.03;;;21.10;88.00;;;;;;5022415;28;20463;-69
2023/08/29 04:15:12;;;;;;;2.97;2.87;;;21.10;88.00;;;;;;4987527;28;20995;-69
2023/08/29 04:17:41;;;;;;;2.73;2.53;;;21.10;88.00;;;;;;4989293;28;20437;-75
2023/08/29 04:20:09;;;;;;;3.43;3.23;;;21.10;88.00;;;;;;4992508;28;21117;-69
2023/08/29 04:22:35;;;;;;;3.20;2.87;;;21.10;88.00;;;;;;4992820;28;20455;-71
2023/08/29 04:25:04;;;;;;;3.17;2.87;;;21.10;88.00;;;;;;4992275;28;20454;-70
2023/08/29 04:27:33;;;;;;;3.07;2.87;;;21.10;88.00;;;;;;5026428;28;20424;-70
2023/08/29 04:29:59;;;;;;;3.93;3.57;;;21.10;88.00;;;;;;4992444;28;20452;-69
2023/08/29 04:32:33;;;;;;;3.73;3.43;;;21.10;88.80;;;;;;5008841;28;20450;-70
2023/08/29 04:35:04;;;;;;;3.73;3.47;;;21.00;88.00;;;;;;5008125;28;20534;-69
2023/08/29 04:37:35;;;;;;;4.23;3.27;;;21.00;88.00;;;;;;4992715;28;20432;-69
2023/08/29 04:40:06;;;;;;;3.63;3.10;;;21.00;88.00;;;;;;4992416;28;20436;-70
2023/08/29 04:42:33;;;;;;;3.50;3.30;;;21.00;88.00;;;;;;5008470;28;20450;-70
2023/08/29 04:45:04;;;;;;;3.20;3.00;;;21.00;88.00;;;;;;4992161;28;20455;-70
2023/08/29 04:47:33;;;;;;;3.47;3.17;;;21.00;88.00;;;;;;4988241;28;20407;-70
2023/08/29 04:50:03;;;;;;;3.70;3.20;;;21.00;88.00;;;;;;4987047;28;20458;-70
2023/08/29 04:52:32;;;;;;;3.40;3.10;;;21.00;88.00;;;;;;4971221;28;20557;-70
2023/08/29 04:55:06;;;;;;;3.07;2.80;;;21.00;88.00;;;;;;4957242;28;20470;-70
2023/08/29 04:57:33;;;;;;;3.97;3.20;;;20.90;87.90;;;;;;4971502;28;20431;-71
2023/08/29 05:00:01;;;;;;;3.60;3.10;;;21.00;88.00;;;;;;4979351;28;20842;-69
2023/08/29 05:02:30;;;;;;;7.80;3.47;;;20.90;87.90;;;;;;5006982;28;20837;-70
2023/08/29 05:04:57;;;;;;;6.50;3.23;;;20.90;87.80;;;;;;4990647;28;20438;-70
2023/08/29 05:07:24;;;;;;;3.10;2.90;;;20.90;87.90;;;;;;4972110;28;21154;-70
2023/08/29 05:09:56;;;;;;;3.60;3.40;;;20.90;87.90;;;;;;5006118;28;20434;-70
2023/08/29 05:12:25;;;;;;;3.50;3.30;;;20.90;88.70;;;;;;4971755;28;20463;-70
2023/08/29 05:14:54;;;;;;;3.00;2.70;;;20.90;87.90;;;;;;4971536;28;20846;-69
2023/08/29 05:17:20;;;;;;;2.60;2.40;;;20.90;87.90;;;;;;5007749;28;21092;-71
2023/08/29 05:19:50;;;;;;;3.37;3.07;;;20.90;87.90;;;;;;4991144;28;20487;-76
2023/08/29 05:22:21;;;;;;;2.93;2.73;;;20.90;88.00;;;;;;4991171;28;20437;-70
2023/08/29 05:24:48;;;;;;;3.37;3.13;;;20.90;88.00;;;;;;4999212;22;20446;-69
2023/08/29 05:27:14;;;;;;;3.33;3.10;;;20.90;88.00;;;;;;4983104;28;21097;-70
2023/08/29 05:29:41;;;;;;;3.53;3.23;;;20.80;87.90;;;;;;4968133;28;20188;-75
2023/08/29 05:32:10;;;;;;;3.00;2.80;;;20.80;87.90;;;;;;4985959;28;20458;-69
2023/08/29 05:34:39;;;;;;;3.60;2.93;;;20.80;87.90;;;;;;4986013;28;20444;-70
2023/08/29 05:37:07;;;;;;;3.07;2.83;;;20.80;88.00;;;;;;4968254;28;20420;-69
2023/08/29 05:39:35;;;;;;;3.63;3.43;;;20.80;88.80;;;;;;4968264;28;20428;-70
2023/08/29 05:42:03;;;;;;;4.20;3.03;;;20.80;88.00;;;;;;4952868;28;20432;-69
2023/08/29 05:44:33;;;;;;;2.97;2.77;;;20.80;88.00;;;;;;4985833;28;20432;-69
2023/08/29 05:46:59;;;;;;;3.40;3.10;;;20.80;88.00;;;;;;4952905;28;20467;-70
2023/08/29 05:49:29;;;;;;;3.30;3.10;;;20.80;88.00;;;;;;4985589;28;20504;-69
2023/08/29 05:51:55;;;;;;;3.80;2.87;;;20.80;88.10;;;;;;4951985;28;20465;-70
2023/08/29 05:54:21;;;;;;;3.30;2.93;;;20.80;88.10;;;;;;4968073;28;20984;-69
2023/08/29 05:56:47;;;;;;;3.50;3.30;;;20.80;88.10;;;;;;4985529;28;20457;-69
2023/08/29 05:59:13;;;;;;;3.07;2.87;;;20.80;88.20;;;;;;4951831;28;20988;-70
2023/08/29 06:01:39;;;;;;;2.90;2.70;;;20.80;88.20;;;;;;4967710;28;20564;-70
2023/08/29 06:04:05;;;;;;;2.87;2.67;;;20.70;88.20;;;;;;4951594;28;20439;-69
2023/08/29 06:06:31;;;;;;;3.07;2.87;;;20.70;88.20;;;;;;4985475;28;20555;-68
2023/08/29 06:09:33;;;;;;;3.13;2.93;;;20.80;88.30;;;;;;4984719;23;20772;-72
2023/08/29 06:12:02;;;;;;;3.53;3.00;;;20.80;88.40;;;;;;4935748;29;20494;-73
2023/08/29 06:14:28;;;;;;;3.23;2.93;;;20.70;88.40;;;;;;4911837;29;20915;-73
2023/08/29 06:16:55;;;;;;;4.17;2.80;;;20.70;88.40;;;;;;4945199;29;20516;-73
2023/08/29 06:19:21;;;;;;;3.07;2.67;;;20.70;88.40;;;;;;4947289;29;20458;-73
2023/08/29 06:21:47;;;;;;;3.27;2.93;;;20.70;88.40;;;;;;4931575;29;20469;-73
2023/08/29 06:24:18;;;;;;;3.47;3.27;;;20.70;88.50;;;;;;4946675;29;20474;-73
2023/08/29 06:26:46;;;;;;;3.33;3.03;;;20.70;88.60;;;;;;4931039;29;20854;-73
2023/08/29 06:29:12;;;;;;;3.10;2.90;;;20.70;88.50;;;;;;4948593;29;20427;-73
2023/08/29 06:31:42;;;;;;;3.83;3.47;;;20.70;88.60;;;;;;4949065;29;20804;-73
2023/08/29 06:34:10;;;;;;;3.40;3.20;;;20.70;88.70;;;;;;4947135;29;20656;-73
2023/08/29 06:36:39;;;;;;;3.20;2.90;;;20.70;88.70;;;;;;4947008;29;20461;-73
2023/08/29 06:39:05;;;;;;;3.20;2.90;;;20.70;88.70;;;;;;4929094;29;20462;-73
2023/08/29 06:41:33;;;;;;;3.30;3.10;;;20.70;88.70;;;;;;4944563;28;20977;-73
2023/08/29 06:44:09;;;;;;;3.87;2.90;;;20.70;88.70;;;;;;4947270;29;20445;-74
2023/08/29 06:46:38;;;;;;;2.87;2.53;;;20.70;88.70;;;;;;4930148;29;20518;-74
2023/08/29 06:49:07;;;;;;;2.90;2.70;;;20.70;88.80;;;;;;4947323;29;20413;-73
2023/08/29 06:51:35;;;;;;;4.33;3.10;;;20.70;88.70;;;;;;4930866;29;21074;-73
2023/08/29 06:54:03;;;;;;;4.00;3.07;;;20.70;88.80;;;;;;4928963;29;20856;-73
2023/08/29 06:56:33;;;;;;;3.57;3.17;;;20.70;88.90;;;;;;4929632;29;20473;-73
2023/08/29 06:58:59;;;;;;;3.90;3.60;;;20.70;88.90;;;;;;4929911;29;20591;-73
2023/08/29 07:01:27;;;;;;;4.70;3.47;;;20.70;89.00;;;;;;4929725;29;20846;-73
2023/08/29 07:03:53;;;;;;;3.70;3.40;;;20.70;89.10;;;;;;4946605;28;20429;-73
2023/08/29 07:06:19;;;;;;;3.20;3.00;;;20.70;89.10;;;;;;4947022;29;20465;-74
2023/08/29 07:08:48;;;;;;;3.30;3.00;;;20.70;89.10;;;;;;4945446;29;20600;-73
2023/08/29 07:11:19;;;;;;;3.80;3.40;;;20.70;89.20;;;;;;4946139;29;21257;-73
2023/08/29 07:13:45;;;;;;;3.30;3.00;;;20.70;89.10;;;;;;4945086;29;20424;-73
2023/08/29 07:16:15;;;;;;;3.17;2.97;;;20.70;89.20;;;;;;4929493;29;20858;-73
2023/08/29 07:18:41;;;;;;;3.40;3.10;;;20.60;89.10;;;;;;4944970;29;20201;-73
2023/08/29 07:21:11;;;;;;;3.40;3.10;;;20.70;89.20;;;;;;4928463;29;20426;-73
2023/08/29 07:23:37;;;;;;;3.53;3.33;;;20.70;89.20;;;;;;4944862;29;20210;-73
2023/08/29 07:26:03;;;;;;;3.83;3.53;;;20.70;89.20;;;;;;4928960;29;20442;-73
2023/08/29 07:28:31;;;;;;;3.73;3.43;;;20.70;89.20;;;;;;4946279;29;20505;-74
2023/08/29 07:30:58;;;;;;;3.87;3.57;;;20.70;89.30;;;;;;4944351;29;21005;-73
2023/08/29 07:33:24;;;;;;;3.63;3.33;;;20.70;89.30;;;;;;4944611;29;21059;-73
2023/08/29 07:35:53;;;;;;;3.93;3.53;;;20.70;89.30;;;;;;4945982;29;20442;-73
2023/08/29 07:38:22;;;;;;;3.70;3.40;;;20.70;89.40;;;;;;4946528;29;20421;-73
2023/08/29 07:40:49;;;;;;;4.00;3.67;;;20.70;89.40;;;;;;4944563;29;20425;-73
2023/08/29 07:43:16;;;;;;;5.43;3.40;;;20.70;89.60;;;;;;4927825;29;21114;-74
2023/08/29 07:45:45;;;;;;;4.10;3.43;;;20.70;89.60;;;;;;4945227;29;20540;-74
2023/08/29 07:48:11;;;;;;;3.67;3.40;;;20.70;89.50;;;;;;4943127;29;20453;-73
2023/08/29 07:50:37;;;;;;;4.47;4.07;;;20.70;89.60;;;;;;4927676;29;20862;-73
2023/08/29 07:53:03;;;;;;;5.83;3.67;;;20.70;89.70;;;;;;4945319;28;20464;-73
2023/08/29 07:55:34;;;;;;;4.30;4.00;;;20.70;89.70;;;;;;4928033;29;20820;-73
2023/08/29 07:58:01;;;;;;;5.43;3.90;;;20.70;89.60;;;;;;4944094;29;20417;-73
2023/08/29 08:00:30;;;;;;;7.87;3.33;;;20.70;89.60;;;;;;4945481;29;20990;-73
2023/08/29 08:03:00;;;;;;;4.73;4.33;;;20.70;89.70;;;;;;4945553;29;20990;-74
2023/08/29 08:05:31;;;;;;;4.50;4.10;;;20.70;89.70;;;;;;4933834;28;20461;-73
2023/08/29 08:08:00;;;;;;;3.90;3.50;;;20.70;89.70;;;;;;4966023;28;20789;-73
2023/08/29 08:10:26;;;;;;;4.20;3.60;;;20.70;89.70;;;;;;4933246;28;20997;-74
2023/08/29 08:12:57;;;;;;;4.70;4.30;;;20.70;89.80;;;;;;4947469;28;20938;-74
2023/08/29 08:15:23;;;;;;;4.40;4.00;;;20.70;89.80;;;;;;4931232;28;20896;-74
2023/08/29 08:17:52;;;;;;;4.40;4.00;;;20.70;89.80;;;;;;4926578;29;20443;-74
2023/08/29 08:20:22;;;;;;;4.53;4.13;;;20.70;89.90;;;;;;4943835;29;21028;-74
2023/08/29 08:22:48;;;;;;;6.33;4.53;;;20.70;89.80;;;;;;4927300;29;20832;-75
2023/08/29 08:25:16;;;;;;;5.00;4.50;;;20.70;89.90;;;;;;4943683;29;20454;-74
2023/08/29 08:27:44;;;;;;;4.93;4.50;;;20.70;90.00;;;;;;4927454;29;20547;-74
2023/08/29 08:30:13;;;;;;;6.17;4.33;;;20.70;90.00;;;;;;4927278;29;20527;-74
2023/08/29 08:32:39;;;;;;;5.40;4.90;;;20.70;90.00;;;;;;4945928;29;21093;-74
2023/08/29 08:35:08;;;;;;;6.20;5.10;;;20.70;90.00;;;;;;4946195;28;20492;-74
2023/08/29 08:37:37;;;;;;;5.70;5.20;;;20.70;90.00;;;;;;4921755;28;20435;-73
2023/08/29 08:40:09;;;;;;;5.40;4.90;;;20.70;90.10;;;;;;4946325;28;20770;-74
2023/08/29 08:42:44;;;;;;;5.70;4.57;;;20.70;90.10;;;;;;4930390;28;20511;-74
2023/08/29 08:45:14;;;;;;;6.10;4.40;;;20.70;90.10;;;;;;4945909;28;20501;-74
2023/08/29 08:47:40;;;;;;;5.00;4.50;;;20.70;90.10;;;;;;4946444;28;21083;-74
2023/08/29 08:50:08;;;;;;;6.33;4.30;;;20.80;90.20;;;;;;4946019;28;20500;-74
2023/08/29 08:52:38;;;;;;;5.67;5.07;;;20.70;90.10;;;;;;4962088;28;20468;-74
2023/08/29 08:55:05;;;;;;;5.13;4.73;;;20.70;90.10;;;;;;4963509;28;20863;-74
2023/08/29 08:57:34;;;;;;;7.30;4.87;;;20.70;90.20;;;;;;4962701;28;20444;-74
2023/08/29 09:00:00;;;;;;;5.77;4.90;;;20.70;90.20;;;;;;4931062;28;20478;-74
2023/08/29 09:02:27;;;;;;;5.67;4.10;;;20.70;90.20;;;;;;4962471;28;20824;-74
2023/08/29 09:04:57;;;;;;;5.23;4.30;;;20.80;90.60;;;;;;4948289;28;20477;-73
2023/08/29 09:07:23;;;;;;;5.00;4.50;;;20.80;90.20;;;;;;4968530;28;20981;-74
2023/08/29 09:10:07;;;;;;;4.83;4.40;;;20.80;90.20;;;;;;4949797;28;20477;-74
2023/08/29 09:12:34;;;;;;;6.67;4.40;;;20.80;90.20;;;;;;4933887;28;20479;-74
2023/08/29 09:15:05;;;;;;;5.47;4.83;;;20.80;90.10;;;;;;4967417;28;20641;-74
2023/08/29 09:17:33;;;;;;;5.30;4.80;;;20.80;90.20;;;;;;4965327;28;20795;-74
2023/08/29 09:19:59;;;;;;;5.77;4.90;;;20.80;90.20;;;;;;4930315;29;20438;-74
2023/08/29 09:22:28;;;;;;;6.00;4.90;;;20.80;90.20;;;;;;4930977;29;20845;-74
2023/08/29 09:25:06;;;;;;;6.67;4.80;;;20.80;90.20;;;;;;4945698;29;20504;-74
2023/08/29 09:27:48;;;;;;;5.17;4.60;;;20.80;90.20;;;;;;4947056;29;20857;-74
2023/08/29 09:30:19;;;;;;;5.23;4.80;;;20.80;90.10;;;;;;4930708;29;20425;-74
2023/08/29 09:32:52;;;;;;;6.00;5.50;;;20.80;90.10;;;;;;4914479;29;21090;-74
2023/08/29 09:35:22;;;;;;;4.63;4.23;;;20.80;90.10;;;;;;4947763;29;20445;-74
2023/08/29 09:37:53;;;;;;;4.40;4.00;;;20.90;90.10;;;;;;4945776;29;20417;-74
2023/08/29 09:40:21;;;;;;;5.13;4.57;;;20.90;90.10;;;;;;4947635;29;20425;-74
2023/08/29 09:42:59;;;;;;;8.07;4.30;;;20.90;90.00;;;;;;4946325;29;20465;-74
2023/08/29 09:45:29;;;;;;;5.20;4.53;;;20.90;90.10;;;;;;4947496;29;20985;-74
2023/08/29 09:48:07;;;;;;;4.10;3.70;;;20.90;90.00;;;;;;4945980;29;20548;-74
2023/08/29 09:50:36;;;;;;;6.33;4.03;;;20.90;90.00;;;;;;4930412;29;20511;-74
2023/08/29 09:53:02;;;;;;;5.17;4.03;;;20.90;90.00;;;;;;4930267;29;20493;-74
2023/08/29 09:55:45;;;;;;;5.63;4.60;;;21.00;90.00;;;;;;4947920;29;20438;-74
2023/08/29 09:58:12;;;;;;;4.37;3.97;;;21.00;90.00;;;;;;4946006;29;20533;-75
2023/08/29 10:00:41;;;;;;;4.70;3.97;;;21.00;89.90;;;;;;4930291;29;20459;-74
2023/08/29 10:03:09;;;;;;;5.30;4.80;;;21.00;89.80;;;;;;4913843;29;20465;-74
2023/08/29 10:05:37;;;;;;;4.67;4.27;;;21.00;89.70;;;;;;4930067;29;20446;-74
2023/08/29 10:08:28;;;;;;;4.20;3.90;;;21.00;89.70;;;;;;4945283;29;20588;-74
2023/08/29 10:10:56;;;;;;;3.97;3.53;;;21.00;89.60;;;;;;4946729;29;20991;-74
2023/08/29 10:13:27;;;;;;;4.10;3.57;;;21.00;89.60;;;;;;4913838;29;20933;-74
2023/08/29 10:15:54;;;;;;;4.83;3.73;;;21.10;89.60;;;;;;4928581;29;20534;-74
2023/08/29 10:18:21;;;;;;;3.97;3.57;;;21.10;89.60;;;;;;4929474;29;20485;-74
2023/08/29 10:20:50;;;;;;;7.03;3.60;;;21.10;89.40;;;;;;4947088;29;20425;-74
2023/08/29 10:23:18;;;;;;;3.80;3.50;;;21.10;89.30;;;;;;4929453;29;20465;-74
2023/08/29 10:25:48;;;;;;;5.17;3.60;;;21.10;89.20;;;;;;4913880;29;20555;-74
2023/08/29 10:28:19;;;;;;;3.67;3.30;;;21.10;89.20;;;;;;4945922;29;20485;-74
2023/08/29 10:30:59;;;;;;;3.93;3.53;;;21.10;89.20;;;;;;4948018;29;20427;-74
2023/08/29 10:33:25;;;;;;;4.87;3.87;;;21.20;89.20;;;;;;4930263;29;20476;-74
2023/08/29 10:35:52;;;;;;;4.50;4.10;;;21.20;89.20;;;;;;4945495;29;20822;-74
2023/08/29 10:38:24;;;;;;;3.80;3.50;;;21.20;89.20;;;;;;4929035;29;20473;-74
2023/08/29 10:41:03;;;;;;;3.60;3.30;;;21.20;89.10;;;;;;4946756;29;20446;-74
2023/08/29 10:43:28;;;;;;;5.67;3.67;;;21.20;89.10;;;;;;4944944;29;20445;-74
2023/08/29 10:45:56;;;;;;;3.60;3.33;;;21.20;89.10;;;;;;4947215;29;20541;-74
2023/08/29 10:48:47;;;;;;;4.37;3.83;;;21.20;89.10;;;;;;4929765;29;20444;-74
2023/08/29 10:51:15;;;;;;;3.37;3.07;;;21.20;89.10;;;;;;4929689;29;20406;-74
2023/08/29 10:53:51;;;;;;;4.37;4.07;;;21.20;89.00;;;;;;4945148;29;20829;-74
2023/08/29 10:56:18;;;;;;;3.80;3.50;;;21.20;89.00;;;;;;4929243;29;20478;-74
2023/08/29 10:58:47;;;;;;;3.90;3.57;;;21.20;89.00;;;;;;4929151;29;20791;-74
2023/08/29 11:01:28;;;;;;;3.33;3.03;;;21.20;88.90;;;;;;4929599;29;20446;-74
2023/08/29 11:03:58;;;;;;;4.77;4.37;;;21.30;89.00;;;;;;4945039;29;20438;-74
2023/08/29 11:06:54;;;;;;;6.50;5.90;;;21.30;89.00;;;;;;4945132;29;20548;-74
2023/08/29 11:09:24;;;;;;;6.73;6.03;;;21.30;89.20;;;;;;4947118;29;20426;-74
2023/08/29 11:12:09;;;;;;;6.20;5.00;;;21.30;89.00;;;;;;4929527;29;20490;-74
2023/08/29 11:14:57;;;;;;;6.17;5.30;;;21.30;89.00;;;;;;4929478;29;20429;-74
2023/08/29 11:17:26;;;;;;;6.57;5.70;;;21.30;89.10;;;;;;4946418;29;20427;-75
2023/08/29 11:20:02;;;;;;;5.47;4.60;;;21.30;89.00;;;;;;4947855;28;20438;-74
2023/08/29 11:22:31;;;;;;;5.57;5.10;;;21.30;89.00;;;;;;4963725;28;20502;-75
2023/08/29 11:25:00;;;;;;;5.97;5.47;;;21.30;89.00;;;;;;4921646;29;20490;-74
2023/08/29 11:27:38;;;;;;;4.93;4.43;;;21.30;89.00;;;;;;4924899;29;20637;-74
2023/08/29 11:30:05;;;;;;;5.47;4.50;;;21.30;88.90;;;;;;4909476;29;20786;-74
2023/08/29 11:32:31;;;;;;;4.77;4.17;;;21.30;88.90;;;;;;4924921;29;20568;-74
2023/08/29 11:34:59;;;;;;;5.10;4.60;;;21.40;88.90;;;;;;4893856;29;20438;-74
2023/08/29 11:37:32;;;;;;;6.10;4.90;;;21.40;88.90;;;;;;4927973;29;20452;-74
2023/08/29 11:40:09;;;;;;;5.97;4.70;;;21.40;88.80;;;;;;4928001;29;21252;-74
2023/08/29 11:42:38;;;;;;;6.43;4.33;;;21.40;88.70;;;;;;4925515;29;20493;-74
2023/08/29 11:45:08;;;;;;;4.83;4.40;;;21.40;88.60;;;;;;4909647;29;20462;-74
2023/08/29 11:47:34;;;;;;;4.90;4.50;;;21.40;88.50;;;;;;4926338;28;20419;-74
2023/08/29 11:50:05;;;;;;;5.03;4.00;;;21.40;88.60;;;;;;4965848;28;20410;-74
2023/08/29 11:52:41;;;;;;;4.93;4.53;;;21.40;88.50;;;;;;4964207;28;20564;-74
2023/08/29 11:55:10;;;;;;;4.67;4.30;;;21.50;88.60;;;;;;4947782;28;20430;-74
2023/08/29 11:57:44;;;;;;;4.80;4.30;;;21.50;88.50;;;;;;4964233;28;20417;-72
2023/08/29 12:00:13;;;;;;;5.17;4.67;;;21.50;88.40;;;;;;4963644;28;20422;-72
2023/08/29 12:02:40;;;;;;;4.97;4.57;;;21.50;88.30;;;;;;4947837;28;20480;-72
2023/08/29 12:05:10;;;;;;;4.17;3.77;;;21.50;88.30;;;;;;4947610;28;20440;-72
2023/08/29 12:07:36;;;;;;;4.83;4.23;;;21.50;88.30;;;;;;4948040;28;20990;-72
2023/08/29 12:10:16;;;;;;;4.30;4.00;;;21.50;88.30;;;;;;4948027;28;20545;-72
2023/08/29 12:12:42;;;;;;;5.27;4.87;;;21.50;88.30;;;;;;4932076;28;20469;-72
2023/08/29 12:15:17;;;;;;;4.53;4.13;;;21.60;88.40;;;;;;4965372;28;20869;-72
2023/08/29 12:17:47;;;;;;;6.00;4.43;;;21.60;88.40;;;;;;4964794;28;20444;-72
2023/08/29 12:20:13;;;;;;;5.43;5.00;;;21.60;88.30;;;;;;4963618;28;20406;-72
2023/08/29 12:22:49;;;;;;;5.20;4.70;;;21.60;88.30;;;;;;4932517;28;20934;-72
2023/08/29 12:25:18;;;;;;;5.00;4.70;;;21.60;88.20;;;;;;4965539;28;20540;-72
2023/08/29 12:27:45;;;;;;;5.23;4.83;;;21.60;88.20;;;;;;4947435;28;20998;-72
2023/08/29 12:30:16;;;;;;;5.30;4.83;;;21.60;88.20;;;;;;4964867;28;20453;-72
2023/08/29 12:32:45;;;;;;;5.67;5.17;;;21.60;88.20;;;;;;4947275;28;20477;-71
2023/08/29 12:35:15;;;;;;;5.07;4.67;;;21.70;88.10;;;;;;4965155;28;21006;-72
2023/08/29 12:37:43;;;;;;;5.90;5.20;;;21.70;88.00;;;;;;4947799;28;20887;-72
2023/08/29 12:40:12;;;;;;;5.87;5.43;;;21.70;88.00;;;;;;4933458;28;21125;-72
2023/08/29 12:42:41;;;;;;;7.00;5.47;;;21.70;88.00;;;;;;4950891;28;20834;-72
2023/08/29 12:45:10;;;;;;;5.50;5.00;;;21.70;88.00;;;;;;4966854;28;20758;-72
2023/08/29 12:47:37;;;;;;;5.30;4.87;;;21.70;88.00;;;;;;4935175;28;20437;-72
2023/08/29 12:50:03;;;;;;;4.83;4.43;;;21.70;88.00;;;;;;4950369;28;20499;-72
2023/08/29 12:52:34;;;;;;;5.33;4.93;;;21.70;87.90;;;;;;4967839;28;20589;-72
2023/08/29 12:55:01;;;;;;;6.70;4.93;;;21.70;87.90;;;;;;4966550;28;20519;-72
2023/08/29 12:57:27;;;;;;;5.67;5.17;;;21.80;88.10;;;;;;4968612;28;20410;-71
2023/08/29 12:59:56;;;;;;;5.13;4.63;;;21.80;88.10;;;;;;4967266;28;20753;-71